KONL/ONL METAR and TAF weather

Enter ICAO airport designator
Station Type Date Time Source
KONL METAR 2019/12/10 19:35 UTC NOAA

KONL 101935Z AUTO 28007KT 10SM CLR M09/M15 A3026 RMK AO2 T10921155


Station Type Date Time Source
KONL Decoded METAR 2019/12/10 19:35 UTC NOAA

O'Neill / Baker Field, NE, United States (KONL) 42-28N 098-41W
Dec 10, 2019 - 02:35 PM EST / 2019.12.10 1935 UTC
Wind: from the W (280 degrees) at 8 MPH (7 KT):0
Visibility: 10 mile(s):0
Sky conditions: clear
Temperature: 15.4 F (-9.2 C)
Windchill: 5 F (-15 C):1
Dew Point: 4.1 F (-15.5 C)
Relative Humidity: 60%
Pressure (altimeter): 30.26 in. Hg (1024 hPa)
ob: KONL 101935Z AUTO 28007KT 10SM CLR M09/M15 A3026 RMK AO2 T10921155
cycle: 19

Station Type Date Time Source
KONL TAF UTC NOAA

Error!

Example: see airport list